createdAt,value
2023-01-25T00:00:28.487Z,4.85
2023-01-25T00:05:28.703Z,4.82
2023-01-25T00:10:27.485Z,4.74
2023-01-25T00:15:26.263Z,4.71
2023-01-25T00:20:25.077Z,4.76
2023-01-25T00:25:25.227Z,4.80
2023-01-25T00:30:23.913Z,4.78
2023-01-25T00:35:24.623Z,4.78
2023-01-25T00:40:24.669Z,4.63
2023-01-25T00:45:23.644Z,4.66
2023-01-25T00:50:22.414Z,4.54
2023-01-25T00:55:21.112Z,4.45
2023-01-25T01:00:22.541Z,4.40
2023-01-25T01:05:21.540Z,4.32
2023-01-25T01:10:22.882Z,4.18
2023-01-25T01:15:24.855Z,4.25
2023-01-25T01:20:23.912Z,4.38
2023-01-25T01:25:24.309Z,4.36
2023-01-25T01:30:25.910Z,4.43
2023-01-25T01:35:24.678Z,4.33
2023-01-25T01:40:25.084Z,4.39
2023-01-25T01:45:52.200Z,4.32
2023-01-25T01:51:01.752Z,4.16
2023-01-25T01:56:03.886Z,4.13
2023-01-25T02:01:04.345Z,4.18
2023-01-25T02:06:06.535Z,4.15
2023-01-25T02:11:06.344Z,4.17
2023-01-25T02:16:11.997Z,4.24
2023-01-25T02:21:12.118Z,4.25
2023-01-25T02:26:12.598Z,4.19
2023-01-25T02:31:11.537Z,4.03
2023-01-25T02:36:23.414Z,3.83
2023-01-25T02:41:28.319Z,3.92
2023-01-25T02:46:31.881Z,4.06
2023-01-25T02:51:33.148Z,4.11
2023-01-25T02:56:34.237Z,4.15
2023-01-25T03:01:34.356Z,4.11
2023-01-25T03:06:34.621Z,4.12
2023-01-25T03:11:35.495Z,4.09
2023-01-25T03:16:34.468Z,4.01
2023-01-25T03:21:34.426Z,3.99
2023-01-25T03:26:55.429Z,4.00
2023-01-25T03:31:59.129Z,4.02
2023-01-25T03:36:58.158Z,4.00
2023-01-25T03:41:58.743Z,3.97
2023-01-25T03:46:57.817Z,4.00
2023-01-25T03:51:58.126Z,4.06
2023-01-25T03:57:08.631Z,4.13
2023-01-25T04:02:17.039Z,4.07
2023-01-25T04:07:15.875Z,4.04
2023-01-25T04:12:16.642Z,4.04
2023-01-25T04:17:15.819Z,3.99
2023-01-25T04:22:34.938Z,3.93
2023-01-25T04:27:36.812Z,4.04
2023-01-25T04:32:40.387Z,4.12
2023-01-25T04:38:00.819Z,4.09
2023-01-25T04:43:08.845Z,4.10
2023-01-25T04:48:09.993Z,4.05
2023-01-25T04:53:12.997Z,3.95
2023-01-25T04:58:13.534Z,3.75
2023-01-25T05:03:13.367Z,3.68
2023-01-25T05:08:13.201Z,3.63
2023-01-25T05:13:13.503Z,3.67
2023-01-25T05:18:12.550Z,3.72
2023-01-25T05:23:11.632Z,3.75
2023-01-25T05:28:11.030Z,3.75
2023-01-25T05:33:49.678Z,3.77
2023-01-25T05:38:50.373Z,3.78
2023-01-25T05:43:50.296Z,3.86
2023-01-25T05:48:51.149Z,3.95
2023-01-25T05:53:50.760Z,3.65
2023-01-25T05:58:54.403Z,3.79
2023-01-25T06:03:55.179Z,3.85
2023-01-25T06:08:56.397Z,3.97
2023-01-25T06:13:55.300Z,4.05
2023-01-25T06:18:55.426Z,4.06
2023-01-25T06:24:16.894Z,3.95
2023-01-25T06:29:15.820Z,3.86
2023-01-25T06:34:17.098Z,3.90
2023-01-25T06:39:16.044Z,3.61
2023-01-25T06:44:14.724Z,3.67
2023-01-25T06:49:13.466Z,3.73
2023-01-25T06:54:13.553Z,3.75
2023-01-25T06:59:12.265Z,3.84
2023-01-25T07:04:12.420Z,4.00
2023-01-25T07:09:14.905Z,3.98
2023-01-25T07:14:13.619Z,4.00
2023-01-25T07:19:14.165Z,4.00
2023-01-25T07:24:21.162Z,3.71
2023-01-25T07:29:20.271Z,3.80
2023-01-25T07:34:19.078Z,3.92
2023-01-25T07:39:19.234Z,3.84
2023-01-25T07:44:18.007Z,3.97
2023-01-25T07:49:21.225Z,4.00
2023-01-25T07:54:21.572Z,3.95
2023-01-25T07:59:20.380Z,3.94
2023-01-25T08:04:19.378Z,4.04
2023-01-25T08:09:20.674Z,4.21
2023-01-25T08:14:20.988Z,4.22
2023-01-25T08:19:20.398Z,4.04
2023-01-25T08:24:20.834Z,4.01
2023-01-25T08:29:21.233Z,4.08
2023-01-25T08:34:19.990Z,4.28
2023-01-25T08:39:19.015Z,4.28
2023-01-25T08:44:22.640Z,4.10
2023-01-25T08:49:22.976Z,4.14
2023-01-25T08:54:21.769Z,4.30
2023-01-25T08:59:20.498Z,4.28
2023-01-25T09:04:19.358Z,4.15
2023-01-25T09:09:19.707Z,4.10
2023-01-25T09:14:18.456Z,4.04
2023-01-25T09:19:18.545Z,4.14
2023-01-25T09:24:17.310Z,4.36
2023-01-25T09:29:17.485Z,4.21
2023-01-25T09:34:17.271Z,4.07
2023-01-25T09:39:16.125Z,4.16
2023-01-25T09:44:31.672Z,4.25
2023-01-25T09:49:46.962Z,4.50
2023-01-25T09:54:48.512Z,4.70
2023-01-25T09:59:51.376Z,4.56
2023-01-25T10:04:52.583Z,4.39
2023-01-25T10:10:01.846Z,4.40
2023-01-25T10:15:02.204Z,4.37
2023-01-25T10:20:21.439Z,4.39
2023-01-25T10:25:33.287Z,4.62
2023-01-25T10:30:41.624Z,4.63
2023-01-25T10:35:47.197Z,4.58
2023-01-25T10:40:53.894Z,4.62
2023-01-25T10:45:54.054Z,4.65
2023-01-25T10:50:54.931Z,4.98
2023-01-25T10:56:20.184Z,5.08
2023-01-25T11:01:32.647Z,5.07
2023-01-25T11:06:36.707Z,4.61
2023-01-25T11:11:40.655Z,4.38
2023-01-25T11:16:42.519Z,4.89
2023-01-25T11:21:53.660Z,4.90
2023-01-25T11:26:52.519Z,4.33
2023-01-25T11:31:57.863Z,4.08
2023-01-25T11:37:18.069Z,4.48
2023-01-25T11:42:29.476Z,4.68
2023-01-25T11:47:40.874Z,4.84
2023-01-25T11:52:56.656Z,5.07
2023-01-25T11:58:28.094Z,4.86
2023-01-25T12:04:12.372Z,5.00
2023-01-25T12:09:26.257Z,5.16
2023-01-25T12:14:32.282Z,5.27
2023-01-25T12:19:48.296Z,5.04
2023-01-25T12:24:57.036Z,5.08
2023-01-25T12:30:00.205Z,5.13
2023-01-25T12:35:23.132Z,4.57
2023-01-25T12:40:38.365Z,4.90
2023-01-25T12:45:39.790Z,4.77
2023-01-25T12:50:46.639Z,4.71
2023-01-25T12:55:46.355Z,4.57
2023-01-25T13:00:53.996Z,4.82
2023-01-25T13:05:58.206Z,4.80
2023-01-25T13:11:09.402Z,4.80
2023-01-25T13:16:43.332Z,4.88
2023-01-25T13:21:47.474Z,4.90
2023-01-25T13:27:05.017Z,4.75
2023-01-25T13:32:05.994Z,4.55
2023-01-25T13:37:19.143Z,4.86
2023-01-25T13:42:24.075Z,4.94
2023-01-25T13:47:25.385Z,4.93
2023-01-25T13:52:27.130Z,4.92
2023-01-25T13:57:28.048Z,5.00
2023-01-25T14:02:27.878Z,4.75
2023-01-25T14:07:34.061Z,4.82
2023-01-25T14:12:37.748Z,4.86
2023-01-25T14:17:36.286Z,4.87
2023-01-25T14:22:36.883Z,4.55
2023-01-25T14:27:36.925Z,4.62
2023-01-25T14:32:37.036Z,4.77
2023-01-25T14:37:43.758Z,4.59
2023-01-25T14:42:42.619Z,4.63
2023-01-25T14:47:45.267Z,4.51
2023-01-25T14:52:48.600Z,4.36
2023-01-25T14:57:49.405Z,4.41
2023-01-25T15:02:51.195Z,4.12
2023-01-25T15:07:53.134Z,4.19
2023-01-25T15:13:13.753Z,4.11
2023-01-25T15:18:47.217Z,4.39
2023-01-25T15:23:49.349Z,4.39
2023-01-25T15:28:50.491Z,4.34
2023-01-25T15:33:49.639Z,4.48
2023-01-25T15:38:49.869Z,4.34
2023-01-25T15:43:49.740Z,4.41
2023-01-25T15:48:50.595Z,4.49
2023-01-25T15:53:51.182Z,4.56
2023-01-25T15:58:53.074Z,4.47
2023-01-25T16:03:51.990Z,4.45
2023-01-25T16:08:52.255Z,4.41
2023-01-25T16:13:51.419Z,4.38
2023-01-25T16:18:50.693Z,4.30
2023-01-25T16:23:49.447Z,4.37
2023-01-25T16:28:49.577Z,4.46
2023-01-25T16:33:48.383Z,4.58
2023-01-25T16:38:47.646Z,4.38
2023-01-25T16:43:48.077Z,4.31
2023-01-25T16:48:50.077Z,4.33
2023-01-25T16:53:49.951Z,4.39
2023-01-25T16:58:49.699Z,4.55
2023-01-25T17:03:49.926Z,4.49
2023-01-25T17:08:49.520Z,4.58
2023-01-25T17:13:51.701Z,4.49
2023-01-25T17:18:55.552Z,4.40
2023-01-25T17:23:55.321Z,4.47
2023-01-25T17:28:56.560Z,4.57
2023-01-25T17:33:57.302Z,4.47
2023-01-25T17:38:56.194Z,4.55
2023-01-25T17:43:55.137Z,4.48
2023-01-25T17:48:54.437Z,4.44
2023-01-25T17:53:54.806Z,4.38
2023-01-25T17:58:54.001Z,4.16
2023-01-25T18:03:54.590Z,3.91
2023-01-25T18:08:57.203Z,3.82
2023-01-25T18:13:58.428Z,3.99
2023-01-25T18:18:59.289Z,4.13
2023-01-25T18:24:02.000Z,3.95
2023-01-25T18:29:21.238Z,3.77
2023-01-25T18:34:20.027Z,3.75
2023-01-25T18:39:20.242Z,3.71
2023-01-25T18:44:20.003Z,3.68
2023-01-25T18:49:18.965Z,3.71
2023-01-25T18:54:19.247Z,3.65
2023-01-25T18:59:18.088Z,3.58
2023-01-25T19:04:17.308Z,3.67
2023-01-25T19:09:16.158Z,3.83
2023-01-25T19:14:16.575Z,3.80
2023-01-25T19:19:16.038Z,3.79
2023-01-25T19:24:19.710Z,3.92
2023-01-25T19:29:20.061Z,3.90
2023-01-25T19:34:18.857Z,3.96
2023-01-25T19:39:19.558Z,3.96
2023-01-25T19:44:21.044Z,4.07
2023-01-25T19:49:20.928Z,3.99
2023-01-25T19:54:21.198Z,4.04
2023-01-25T19:59:25.276Z,4.02
2023-01-25T20:04:25.364Z,3.91
2023-01-25T20:09:28.154Z,3.86
2023-01-25T20:14:28.677Z,3.88
2023-01-25T20:19:28.237Z,3.95
2023-01-25T20:24:29.349Z,4.13
2023-01-25T20:29:31.132Z,4.19
2023-01-25T20:34:30.815Z,4.02
2023-01-25T20:39:33.657Z,4.00
2023-01-25T20:44:34.239Z,4.01
2023-01-25T20:49:33.557Z,4.12
2023-01-25T20:54:32.345Z,4.16
2023-01-25T20:59:31.131Z,3.92
2023-01-25T21:04:31.261Z,3.75
2023-01-25T21:09:30.593Z,3.62
2023-01-25T21:14:29.398Z,3.65
2023-01-25T21:19:28.247Z,3.74
2023-01-25T21:24:28.339Z,3.64
2023-01-25T21:29:27.159Z,3.78
2023-01-25T21:34:25.976Z,3.87
2023-01-25T21:39:24.736Z,3.83
2023-01-25T21:44:42.383Z,3.84
2023-01-25T21:50:00.604Z,3.69
2023-01-25T21:54:59.590Z,3.77
2023-01-25T21:59:59.856Z,3.80
2023-01-25T22:04:58.621Z,3.79
2023-01-25T22:09:57.400Z,3.82
2023-01-25T22:14:56.102Z,3.26
2023-01-25T22:19:56.353Z,3.42
2023-01-25T22:24:56.855Z,3.37
2023-01-25T22:29:55.747Z,3.44
2023-01-25T22:34:56.209Z,3.43
2023-01-25T22:39:58.548Z,3.49
2023-01-25T22:44:57.430Z,3.51
2023-01-25T22:49:57.693Z,3.56
2023-01-25T22:54:56.385Z,3.61
2023-01-25T22:59:55.212Z,3.58
2023-01-25T23:04:54.313Z,3.46
2023-01-25T23:09:54.513Z,3.54
2023-01-25T23:14:54.058Z,3.42
2023-01-25T23:19:52.958Z,3.53
2023-01-25T23:24:51.671Z,3.26
2023-01-25T23:29:52.377Z,3.29
2023-01-25T23:34:53.338Z,3.43
2023-01-25T23:39:52.165Z,3.42
2023-01-25T23:44:52.668Z,3.47
2023-01-25T23:49:51.489Z,3.51
2023-01-25T23:54:50.431Z,3.50
2023-01-25T23:59:49.288Z,3.53
